sensor_id;sensor_type;location;lat;lon;timestamp;P1;durP1;ratioP1;P2;durP2;ratioP2
15482;SDS011;7843;50.330;7.312;2023-07-28T00:01:31;0.40;;;0.22;;
15482;SDS011;7843;50.330;7.312;2023-07-28T00:03:58;1.00;;;0.70;;
15482;SDS011;7843;50.330;7.312;2023-07-28T00:06:25;0.22;;;0.22;;
15482;SDS011;7843;50.330;7.312;2023-07-28T00:08:52;0.40;;;0.20;;
15482;SDS011;7843;50.330;7.312;2023-07-28T00:11:18;0.60;;;0.30;;
15482;SDS011;7843;50.330;7.312;2023-07-28T00:13:45;6.73;;;0.20;;
15482;SDS011;7843;50.330;7.312;2023-07-28T00:16:12;0.10;;;0.10;;
15482;SDS011;7843;50.330;7.312;2023-07-28T00:18:39;4.57;;;0.20;;
15482;SDS011;7843;50.330;7.312;2023-07-28T00:21:06;1.30;;;0.40;;
15482;SDS011;7843;50.330;7.312;2023-07-28T00:23:32;0.10;;;0.10;;
15482;SDS011;7843;50.330;7.312;2023-07-28T00:25:59;0.22;;;0.13;;
15482;SDS011;7843;50.330;7.312;2023-07-28T00:28:26;0.25;;;0.20;;
15482;SDS011;7843;50.330;7.312;2023-07-28T00:30:56;0.40;;;0.22;;
15482;SDS011;7843;50.330;7.312;2023-07-28T00:33:22;0.10;;;0.10;;
15482;SDS011;7843;50.330;7.312;2023-07-28T00:35:49;0.30;;;0.25;;
15482;SDS011;7843;50.330;7.312;2023-07-28T00:38:16;0.15;;;0.15;;
15482;SDS011;7843;50.330;7.312;2023-07-28T00:40:42;0.30;;;0.30;;
15482;SDS011;7843;50.330;7.312;2023-07-28T00:43:09;0.20;;;0.20;;
15482;SDS011;7843;50.330;7.312;2023-07-28T00:45:36;0.10;;;0.10;;
15482;SDS011;7843;50.330;7.312;2023-07-28T00:48:03;0.40;;;0.15;;
15482;SDS011;7843;50.330;7.312;2023-07-28T00:50:36;0.10;;;0.10;;
15482;SDS011;7843;50.330;7.312;2023-07-28T00:53:03;0.90;;;0.50;;
15482;SDS011;7843;50.330;7.312;2023-07-28T00:55:30;0.30;;;0.30;;
15482;SDS011;7843;50.330;7.312;2023-07-28T00:57:57;0.20;;;0.20;;
15482;SDS011;7843;50.330;7.312;2023-07-28T01:00:24;0.15;;;0.15;;
15482;SDS011;7843;50.330;7.312;2023-07-28T01:02:51;1.80;;;0.40;;
15482;SDS011;7843;50.330;7.312;2023-07-28T01:05:18;0.75;;;0.20;;
15482;SDS011;7843;50.330;7.312;2023-07-28T01:07:51;5.70;;;0.30;;
15482;SDS011;7843;50.330;7.312;2023-07-28T01:10:33;0.10;;;0.10;;
15482;SDS011;7843;50.330;7.312;2023-07-28T01:13:00;0.10;;;0.10;;
15482;SDS011;7843;50.330;7.312;2023-07-28T01:15:27;0.20;;;0.17;;
15482;SDS011;7843;50.330;7.312;2023-07-28T01:17:54;0.23;;;0.23;;
15482;SDS011;7843;50.330;7.312;2023-07-28T01:20:22;0.70;;;0.47;;
15482;SDS011;7843;50.330;7.312;2023-07-28T01:22:56;0.47;;;0.15;;
15482;SDS011;7843;50.330;7.312;2023-07-28T01:25:47;0.50;;;0.32;;
15482;SDS011;7843;50.330;7.312;2023-07-28T01:28:26;1.00;;;0.60;;
15482;SDS011;7843;50.330;7.312;2023-07-28T01:30:54;0.45;;;0.38;;
15482;SDS011;7843;50.330;7.312;2023-07-28T01:33:21;1.40;;;0.25;;
15482;SDS011;7843;50.330;7.312;2023-07-28T01:35:47;0.30;;;0.30;;
15482;SDS011;7843;50.330;7.312;2023-07-28T01:38:14;0.30;;;0.30;;
15482;SDS011;7843;50.330;7.312;2023-07-28T01:40:42;0.75;;;0.35;;
15482;SDS011;7843;50.330;7.312;2023-07-28T01:43:09;0.95;;;0.40;;
15482;SDS011;7843;50.330;7.312;2023-07-28T01:45:35;0.25;;;0.20;;
15482;SDS011;7843;50.330;7.312;2023-07-28T01:48:02;0.10;;;0.10;;
15482;SDS011;7843;50.330;7.312;2023-07-28T01:50:29;0.30;;;0.30;;
15482;SDS011;7843;50.330;7.312;2023-07-28T01:52:56;0.38;;;0.20;;
15482;SDS011;7843;50.330;7.312;2023-07-28T01:55:22;0.47;;;0.20;;
15482;SDS011;7843;50.330;7.312;2023-07-28T01:57:50;0.30;;;0.30;;
15482;SDS011;7843;50.330;7.312;2023-07-28T02:00:21;0.10;;;0.10;;
15482;SDS011;7843;50.330;7.312;2023-07-28T02:02:48;0.30;;;0.30;;
15482;SDS011;7843;50.330;7.312;2023-07-28T02:05:15;1.20;;;0.60;;
15482;SDS011;7843;50.330;7.312;2023-07-28T02:07:42;1.40;;;0.40;;
15482;SDS011;7843;50.330;7.312;2023-07-28T02:10:09;0.28;;;0.25;;
15482;SDS011;7843;50.330;7.312;2023-07-28T02:12:39;0.30;;;0.20;;
15482;SDS011;7843;50.330;7.312;2023-07-28T02:15:06;0.40;;;0.30;;
15482;SDS011;7843;50.330;7.312;2023-07-28T02:17:33;0.10;;;0.10;;
15482;SDS011;7843;50.330;7.312;2023-07-28T02:20:00;4.53;;;0.43;;
15482;SDS011;7843;50.330;7.312;2023-07-28T02:22:29;0.68;;;0.30;;
15482;SDS011;7843;50.330;7.312;2023-07-28T02:24:56;0.57;;;0.50;;
15482;SDS011;7843;50.330;7.312;2023-07-28T02:27:26;0.40;;;0.25;;
15482;SDS011;7843;50.330;7.312;2023-07-28T02:29:53;7.20;;;0.68;;
15482;SDS011;7843;50.330;7.312;2023-07-28T02:32:20;0.38;;;0.30;;
15482;SDS011;7843;50.330;7.312;2023-07-28T02:34:46;1.00;;;0.40;;
15482;SDS011;7843;50.330;7.312;2023-07-28T02:37:14;0.20;;;0.20;;
15482;SDS011;7843;50.330;7.312;2023-07-28T02:39:44;0.38;;;0.38;;
15482;SDS011;7843;50.330;7.312;2023-07-28T02:42:11;0.20;;;0.20;;
15482;SDS011;7843;50.330;7.312;2023-07-28T02:44:38;0.30;;;0.30;;
15482;SDS011;7843;50.330;7.312;2023-07-28T02:47:05;0.25;;;0.25;;
15482;SDS011;7843;50.330;7.312;2023-07-28T02:49:32;0.10;;;0.10;;
15482;SDS011;7843;50.330;7.312;2023-07-28T02:51:59;0.10;;;0.10;;
15482;SDS011;7843;50.330;7.312;2023-07-28T02:54:25;0.38;;;0.38;;
15482;SDS011;7843;50.330;7.312;2023-07-28T02:56:52;0.25;;;0.25;;
15482;SDS011;7843;50.330;7.312;2023-07-28T02:59:21;0.40;;;0.22;;
15482;SDS011;7843;50.330;7.312;2023-07-28T03:01:49;0.10;;;0.10;;
15482;SDS011;7843;50.330;7.312;2023-07-28T03:04:18;5.50;;;0.57;;
15482;SDS011;7843;50.330;7.312;2023-07-28T03:06:48;0.20;;;0.20;;
15482;SDS011;7843;50.330;7.312;2023-07-28T03:09:15;0.10;;;0.10;;
15482;SDS011;7843;50.330;7.312;2023-07-28T03:11:42;0.40;;;0.10;;
15482;SDS011;7843;50.330;7.312;2023-07-28T03:14:09;0.00;;;0.00;;
15482;SDS011;7843;50.330;7.312;2023-07-28T03:16:37;0.10;;;0.10;;
15482;SDS011;7843;50.330;7.312;2023-07-28T03:19:04;0.03;;;0.03;;
15482;SDS011;7843;50.330;7.312;2023-07-28T03:21:30;0.20;;;0.20;;
15482;SDS011;7843;50.330;7.312;2023-07-28T03:23:57;0.10;;;0.10;;
15482;SDS011;7843;50.330;7.312;2023-07-28T03:26:24;0.03;;;0.03;;
15482;SDS011;7843;50.330;7.312;2023-07-28T03:28:51;0.10;;;0.10;;
15482;SDS011;7843;50.330;7.312;2023-07-28T03:31:18;0.10;;;0.10;;
15482;SDS011;7843;50.330;7.312;2023-07-28T03:33:44;0.20;;;0.20;;
15482;SDS011;7843;50.330;7.312;2023-07-28T03:36:11;0.60;;;0.20;;
15482;SDS011;7843;50.330;7.312;2023-07-28T03:38:39;0.00;;;0.00;;
15482;SDS011;7843;50.330;7.312;2023-07-28T03:41:05;0.10;;;0.10;;
15482;SDS011;7843;50.330;7.312;2023-07-28T03:43:33;0.10;;;0.10;;
15482;SDS011;7843;50.330;7.312;2023-07-28T03:46:00;0.00;;;0.00;;
15482;SDS011;7843;50.330;7.312;2023-07-28T03:48:27;0.10;;;0.10;;
15482;SDS011;7843;50.330;7.312;2023-07-28T03:50:53;0.10;;;0.10;;
15482;SDS011;7843;50.330;7.312;2023-07-28T03:53:20;0.00;;;0.00;;
15482;SDS011;7843;50.330;7.312;2023-07-28T03:55:47;0.13;;;0.13;;
15482;SDS011;7843;50.330;7.312;2023-07-28T03:58:14;1.20;;;0.30;;
15482;SDS011;7843;50.330;7.312;2023-07-28T04:00:40;0.50;;;0.30;;
15482;SDS011;7843;50.330;7.312;2023-07-28T04:03:07;0.10;;;0.10;;
15482;SDS011;7843;50.330;7.312;2023-07-28T04:05:35;0.00;;;0.00;;
15482;SDS011;7843;50.330;7.312;2023-07-28T04:08:02;0.05;;;0.05;;
15482;SDS011;7843;50.330;7.312;2023-07-28T04:10:29;1.50;;;0.10;;
15482;SDS011;7843;50.330;7.312;2023-07-28T04:12:56;0.10;;;0.10;;
15482;SDS011;7843;50.330;7.312;2023-07-28T04:15:23;0.10;;;0.10;;
15482;SDS011;7843;50.330;7.312;2023-07-28T04:17:49;0.10;;;0.10;;
15482;SDS011;7843;50.330;7.312;2023-07-28T04:20:16;0.00;;;0.00;;
15482;SDS011;7843;50.330;7.312;2023-07-28T04:22:43;0.20;;;0.20;;
15482;SDS011;7843;50.330;7.312;2023-07-28T04:25:09;1.08;;;0.25;;
15482;SDS011;7843;50.330;7.312;2023-07-28T04:27:36;0.10;;;0.10;;
15482;SDS011;7843;50.330;7.312;2023-07-28T04:30:03;0.30;;;0.30;;
15482;SDS011;7843;50.330;7.312;2023-07-28T04:32:30;0.10;;;0.10;;
15482;SDS011;7843;50.330;7.312;2023-07-28T04:34:57;0.00;;;0.00;;
15482;SDS011;7843;50.330;7.312;2023-07-28T04:37:24;0.10;;;0.10;;
15482;SDS011;7843;50.330;7.312;2023-07-28T04:39:50;0.10;;;0.10;;
15482;SDS011;7843;50.330;7.312;2023-07-28T04:42:17;0.00;;;0.00;;
15482;SDS011;7843;50.330;7.312;2023-07-28T04:44:44;1.00;;;0.17;;
15482;SDS011;7843;50.330;7.312;2023-07-28T04:47:12;0.30;;;0.10;;
15482;SDS011;7843;50.330;7.312;2023-07-28T04:49:39;0.00;;;0.00;;
15482;SDS011;7843;50.330;7.312;2023-07-28T04:52:06;0.00;;;0.00;;
15482;SDS011;7843;50.330;7.312;2023-07-28T04:54:34;0.00;;;0.00;;
15482;SDS011;7843;50.330;7.312;2023-07-28T04:57:01;0.50;;;0.30;;
15482;SDS011;7843;50.330;7.312;2023-07-28T04:59:27;0.10;;;0.10;;
15482;SDS011;7843;50.330;7.312;2023-07-28T05:01:54;0.03;;;0.03;;
15482;SDS011;7843;50.330;7.312;2023-07-28T05:04:21;0.00;;;0.00;;
15482;SDS011;7843;50.330;7.312;2023-07-28T05:06:48;6.10;;;0.28;;
15482;SDS011;7843;50.330;7.312;2023-07-28T05:09:15;0.10;;;0.10;;
15482;SDS011;7843;50.330;7.312;2023-07-28T05:11:41;0.00;;;0.00;;
15482;SDS011;7843;50.330;7.312;2023-07-28T05:14:08;0.10;;;0.10;;
15482;SDS011;7843;50.330;7.312;2023-07-28T05:16:35;0.20;;;0.20;;
15482;SDS011;7843;50.330;7.312;2023-07-28T05:19:04;0.00;;;0.00;;
15482;SDS011;7843;50.330;7.312;2023-07-28T05:21:32;0.03;;;0.03;;
15482;SDS011;7843;50.330;7.312;2023-07-28T05:23:59;1.00;;;0.40;;
15482;SDS011;7843;50.330;7.312;2023-07-28T05:26:26;0.00;;;0.00;;
15482;SDS011;7843;50.330;7.312;2023-07-28T05:28:52;0.00;;;0.00;;
15482;SDS011;7843;50.330;7.312;2023-07-28T05:31:19;0.10;;;0.10;;
15482;SDS011;7843;50.330;7.312;2023-07-28T05:33:46;0.00;;;0.00;;
15482;SDS011;7843;50.330;7.312;2023-07-28T05:36:12;0.10;;;0.10;;
15482;SDS011;7843;50.330;7.312;2023-07-28T05:38:39;0.00;;;0.00;;
15482;SDS011;7843;50.330;7.312;2023-07-28T05:41:06;0.00;;;0.00;;
15482;SDS011;7843;50.330;7.312;2023-07-28T05:43:33;0.00;;;0.00;;
15482;SDS011;7843;50.330;7.312;2023-07-28T05:46:00;0.00;;;0.00;;
15482;SDS011;7843;50.330;7.312;2023-07-28T05:48:27;0.00;;;0.00;;
15482;SDS011;7843;50.330;7.312;2023-07-28T05:50:54;0.00;;;0.00;;
15482;SDS011;7843;50.330;7.312;2023-07-28T05:53:20;0.00;;;0.00;;
15482;SDS011;7843;50.330;7.312;2023-07-28T05:55:47;0.10;;;0.10;;
15482;SDS011;7843;50.330;7.312;2023-07-28T05:58:17;0.00;;;0.00;;
15482;SDS011;7843;50.330;7.312;2023-07-28T06:00:44;0.10;;;0.10;;
15482;SDS011;7843;50.330;7.312;2023-07-28T06:03:11;0.10;;;0.10;;
15482;SDS011;7843;50.330;7.312;2023-07-28T06:05:40;0.10;;;0.10;;
15482;SDS011;7843;50.330;7.312;2023-07-28T06:08:08;0.00;;;0.00;;
15482;SDS011;7843;50.330;7.312;2023-07-28T06:10:37;0.10;;;0.10;;
15482;SDS011;7843;50.330;7.312;2023-07-28T06:13:04;0.40;;;0.20;;
15482;SDS011;7843;50.330;7.312;2023-07-28T06:15:31;0.00;;;0.00;;
15482;SDS011;7843;50.330;7.312;2023-07-28T06:18:01;0.25;;;0.25;;
15482;SDS011;7843;50.330;7.312;2023-07-28T06:20:29;0.80;;;0.30;;
15482;SDS011;7843;50.330;7.312;2023-07-28T06:22:56;0.10;;;0.10;;
15482;SDS011;7843;50.330;7.312;2023-07-28T06:25:23;0.28;;;0.10;;
15482;SDS011;7843;50.330;7.312;2023-07-28T06:27:49;0.20;;;0.20;;
15482;SDS011;7843;50.330;7.312;2023-07-28T06:30:16;0.10;;;0.10;;
15482;SDS011;7843;50.330;7.312;2023-07-28T06:32:43;0.60;;;0.20;;
15482;SDS011;7843;50.330;7.312;2023-07-28T06:35:10;0.00;;;0.00;;
15482;SDS011;7843;50.330;7.312;2023-07-28T06:37:37;0.10;;;0.10;;
15482;SDS011;7843;50.330;7.312;2023-07-28T06:40:06;0.10;;;0.10;;
15482;SDS011;7843;50.330;7.312;2023-07-28T06:42:35;0.20;;;0.20;;
15482;SDS011;7843;50.330;7.312;2023-07-28T06:45:03;0.10;;;0.10;;
15482;SDS011;7843;50.330;7.312;2023-07-28T06:47:30;0.10;;;0.10;;
15482;SDS011;7843;50.330;7.312;2023-07-28T06:49:56;0.10;;;0.10;;
15482;SDS011;7843;50.330;7.312;2023-07-28T06:52:23;0.10;;;0.10;;
15482;SDS011;7843;50.330;7.312;2023-07-28T06:54:50;0.10;;;0.10;;
15482;SDS011;7843;50.330;7.312;2023-07-28T06:57:18;0.00;;;0.00;;
15482;SDS011;7843;50.330;7.312;2023-07-28T06:59:45;0.10;;;0.10;;
15482;SDS011;7843;50.330;7.312;2023-07-28T07:02:12;0.05;;;0.05;;
15482;SDS011;7843;50.330;7.312;2023-07-28T07:04:39;0.10;;;0.10;;
15482;SDS011;7843;50.330;7.312;2023-07-28T07:07:06;0.80;;;0.20;;
15482;SDS011;7843;50.330;7.312;2023-07-28T07:09:32;0.10;;;0.10;;
15482;SDS011;7843;50.330;7.312;2023-07-28T07:11:59;0.10;;;0.10;;
15482;SDS011;7843;50.330;7.312;2023-07-28T07:14:26;0.10;;;0.10;;
15482;SDS011;7843;50.330;7.312;2023-07-28T07:16:53;0.05;;;0.05;;
15482;SDS011;7843;50.330;7.312;2023-07-28T07:19:19;0.00;;;0.00;;
15482;SDS011;7843;50.330;7.312;2023-07-28T07:21:46;0.00;;;0.00;;
15482;SDS011;7843;50.330;7.312;2023-07-28T07:24:13;0.40;;;0.10;;
15482;SDS011;7843;50.330;7.312;2023-07-28T07:26:40;0.35;;;0.30;;
15482;SDS011;7843;50.330;7.312;2023-07-28T07:29:07;0.00;;;0.00;;
15482;SDS011;7843;50.330;7.312;2023-07-28T07:31:35;0.10;;;0.10;;
15482;SDS011;7843;50.330;7.312;2023-07-28T07:34:02;0.30;;;0.10;;
15482;SDS011;7843;50.330;7.312;2023-07-28T07:36:30;0.13;;;0.13;;
15482;SDS011;7843;50.330;7.312;2023-07-28T07:38:57;0.60;;;0.03;;
15482;SDS011;7843;50.330;7.312;2023-07-28T07:41:24;0.45;;;0.30;;
15482;SDS011;7843;50.330;7.312;2023-07-28T07:43:53;0.05;;;0.05;;
15482;SDS011;7843;50.330;7.312;2023-07-28T07:46:22;0.00;;;0.00;;
15482;SDS011;7843;50.330;7.312;2023-07-28T07:48:49;0.10;;;0.10;;
15482;SDS011;7843;50.330;7.312;2023-07-28T07:51:16;0.17;;;0.17;;
15482;SDS011;7843;50.330;7.312;2023-07-28T07:53:43;0.20;;;0.10;;
15482;SDS011;7843;50.330;7.312;2023-07-28T07:56:10;0.10;;;0.10;;
15482;SDS011;7843;50.330;7.312;2023-07-28T07:58:37;0.30;;;0.20;;
15482;SDS011;7843;50.330;7.312;2023-07-28T08:01:03;0.10;;;0.05;;
15482;SDS011;7843;50.330;7.312;2023-07-28T08:03:30;0.17;;;0.13;;
15482;SDS011;7843;50.330;7.312;2023-07-28T08:05:58;0.10;;;0.10;;
15482;SDS011;7843;50.330;7.312;2023-07-28T08:08:24;0.10;;;0.10;;
15482;SDS011;7843;50.330;7.312;2023-07-28T08:10:53;0.10;;;0.10;;
15482;SDS011;7843;50.330;7.312;2023-07-28T08:13:20;0.00;;;0.00;;
15482;SDS011;7843;50.330;7.312;2023-07-28T08:15:48;0.30;;;0.10;;
15482;SDS011;7843;50.330;7.312;2023-07-28T08:18:14;0.13;;;0.13;;
15482;SDS011;7843;50.330;7.312;2023-07-28T08:20:41;0.10;;;0.10;;
15482;SDS011;7843;50.330;7.312;2023-07-28T08:23:08;0.00;;;0.00;;
15482;SDS011;7843;50.330;7.312;2023-07-28T08:25:35;0.10;;;0.10;;
15482;SDS011;7843;50.330;7.312;2023-07-28T08:28:02;1.90;;;0.10;;
15482;SDS011;7843;50.330;7.312;2023-07-28T08:30:30;0.10;;;0.10;;
15482;SDS011;7843;50.330;7.312;2023-07-28T08:32:58;0.10;;;0.10;;
15482;SDS011;7843;50.330;7.312;2023-07-28T08:35:25;0.10;;;0.10;;
15482;SDS011;7843;50.330;7.312;2023-07-28T08:37:51;0.10;;;0.10;;
15482;SDS011;7843;50.330;7.312;2023-07-28T08:40:18;0.00;;;0.00;;
15482;SDS011;7843;50.330;7.312;2023-07-28T08:42:45;0.03;;;0.03;;
15482;SDS011;7843;50.330;7.312;2023-07-28T08:45:12;0.40;;;0.30;;
15482;SDS011;7843;50.330;7.312;2023-07-28T08:47:40;0.10;;;0.10;;
15482;SDS011;7843;50.330;7.312;2023-07-28T08:50:07;0.10;;;0.10;;
15482;SDS011;7843;50.330;7.312;2023-07-28T08:52:34;0.22;;;0.08;;
15482;SDS011;7843;50.330;7.312;2023-07-28T08:55:01;0.40;;;0.30;;
15482;SDS011;7843;50.330;7.312;2023-07-28T08:57:27;0.10;;;0.10;;
15482;SDS011;7843;50.330;7.312;2023-07-28T08:59:54;0.30;;;0.10;;
15482;SDS011;7843;50.330;7.312;2023-07-28T09:02:22;2.70;;;0.20;;
15482;SDS011;7843;50.330;7.312;2023-07-28T09:04:49;0.20;;;0.20;;
15482;SDS011;7843;50.330;7.312;2023-07-28T09:07:16;0.20;;;0.20;;
15482;SDS011;7843;50.330;7.312;2023-07-28T09:09:42;0.13;;;0.10;;
15482;SDS011;7843;50.330;7.312;2023-07-28T09:12:09;0.20;;;0.10;;
15482;SDS011;7843;50.330;7.312;2023-07-28T09:14:39;0.20;;;0.20;;
15482;SDS011;7843;50.330;7.312;2023-07-28T09:17:06;0.10;;;0.10;;
15482;SDS011;7843;50.330;7.312;2023-07-28T09:19:55;0.05;;;0.05;;
15482;SDS011;7843;50.330;7.312;2023-07-28T09:22:22;0.10;;;0.10;;
15482;SDS011;7843;50.330;7.312;2023-07-28T09:24:50;0.00;;;0.00;;
15482;SDS011;7843;50.330;7.312;2023-07-28T09:27:21;0.60;;;0.10;;
15482;SDS011;7843;50.330;7.312;2023-07-28T09:29:52;0.40;;;0.17;;
15482;SDS011;7843;50.330;7.312;2023-07-28T09:32:30;0.10;;;0.10;;
15482;SDS011;7843;50.330;7.312;2023-07-28T09:37:43;0.10;;;0.10;;
15482;SDS011;7843;50.330;7.312;2023-07-28T09:40:12;0.20;;;0.20;;
15482;SDS011;7843;50.330;7.312;2023-07-28T09:42:41;0.08;;;0.08;;
15482;SDS011;7843;50.330;7.312;2023-07-28T09:45:10;0.20;;;0.10;;
15482;SDS011;7843;50.330;7.312;2023-07-28T09:47:45;0.15;;;0.15;;
15482;SDS011;7843;50.330;7.312;2023-07-28T09:50:16;0.17;;;0.13;;
15482;SDS011;7843;50.330;7.312;2023-07-28T09:52:48;0.20;;;0.15;;
15482;SDS011;7843;50.330;7.312;2023-07-28T09:55:19;0.15;;;0.15;;
15482;SDS011;7843;50.330;7.312;2023-07-28T09:57:50;0.10;;;0.10;;
15482;SDS011;7843;50.330;7.312;2023-07-28T10:00:18;0.22;;;0.10;;
15482;SDS011;7843;50.330;7.312;2023-07-28T10:06:35;0.10;;;0.10;;
15482;SDS011;7843;50.330;7.312;2023-07-28T10:09:04;0.00;;;0.00;;
15482;SDS011;7843;50.330;7.312;2023-07-28T10:11:32;0.35;;;0.20;;
15482;SDS011;7843;50.330;7.312;2023-07-28T10:14:00;1.45;;;0.10;;
15482;SDS011;7843;50.330;7.312;2023-07-28T10:16:30;0.10;;;0.10;;
15482;SDS011;7843;50.330;7.312;2023-07-28T10:19:04;0.10;;;0.10;;
15482;SDS011;7843;50.330;7.312;2023-07-28T10:21:33;0.10;;;0.10;;
15482;SDS011;7843;50.330;7.312;2023-07-28T10:24:07;0.40;;;0.10;;
15482;SDS011;7843;50.330;7.312;2023-07-28T10:26:35;0.20;;;0.10;;
15482;SDS011;7843;50.330;7.312;2023-07-28T10:29:13;0.20;;;0.20;;
15482;SDS011;7843;50.330;7.312;2023-07-28T10:31:51;3.28;;;0.20;;
15482;SDS011;7843;50.330;7.312;2023-07-28T10:34:19;0.60;;;0.30;;
15482;SDS011;7843;50.330;7.312;2023-07-28T10:36:56;0.20;;;0.10;;
15482;SDS011;7843;50.330;7.312;2023-07-28T10:39:26;0.30;;;0.20;;
15482;SDS011;7843;50.330;7.312;2023-07-28T10:42:07;0.10;;;0.10;;
15482;SDS011;7843;50.330;7.312;2023-07-28T10:44:36;0.30;;;0.20;;
15482;SDS011;7843;50.330;7.312;2023-07-28T10:47:07;0.17;;;0.10;;
15482;SDS011;7843;50.330;7.312;2023-07-28T10:49:35;0.60;;;0.20;;
15482;SDS011;7843;50.330;7.312;2023-07-28T10:52:02;0.20;;;0.20;;
15482;SDS011;7843;50.330;7.312;2023-07-28T10:54:30;4.20;;;0.20;;
15482;SDS011;7843;50.330;7.312;2023-07-28T10:57:01;2.70;;;0.40;;
15482;SDS011;7843;50.330;7.312;2023-07-28T10:59:29;0.25;;;0.25;;
15482;SDS011;7843;50.330;7.312;2023-07-28T11:01:56;0.20;;;0.20;;
15482;SDS011;7843;50.330;7.312;2023-07-28T11:04:23;0.43;;;0.40;;
15482;SDS011;7843;50.330;7.312;2023-07-28T11:06:50;0.22;;;0.10;;
15482;SDS011;7843;50.330;7.312;2023-07-28T11:09:18;0.68;;;0.25;;
15482;SDS011;7843;50.330;7.312;2023-07-28T11:11:48;0.20;;;0.20;;
15482;SDS011;7843;50.330;7.312;2023-07-28T11:14:16;0.60;;;0.20;;
15482;SDS011;7843;50.330;7.312;2023-07-28T11:16:44;0.47;;;0.20;;
15482;SDS011;7843;50.330;7.312;2023-07-28T11:19:13;2.00;;;0.30;;
15482;SDS011;7843;50.330;7.312;2023-07-28T11:21:41;0.20;;;0.20;;
15482;SDS011;7843;50.330;7.312;2023-07-28T11:24:09;0.50;;;0.38;;
15482;SDS011;7843;50.330;7.312;2023-07-28T11:26:37;1.20;;;0.23;;
15482;SDS011;7843;50.330;7.312;2023-07-28T11:29:04;1.10;;;0.52;;
15482;SDS011;7843;50.330;7.312;2023-07-28T11:31:32;1.90;;;0.30;;
15482;SDS011;7843;50.330;7.312;2023-07-28T11:33:59;0.20;;;0.20;;
15482;SDS011;7843;50.330;7.312;2023-07-28T11:40:15;0.30;;;0.30;;
15482;SDS011;7843;50.330;7.312;2023-07-28T11:42:44;0.28;;;0.28;;
15482;SDS011;7843;50.330;7.312;2023-07-28T11:45:19;0.22;;;0.22;;
15482;SDS011;7843;50.330;7.312;2023-07-28T11:47:54;0.40;;;0.30;;
15482;SDS011;7843;50.330;7.312;2023-07-28T11:50:29;0.30;;;0.30;;
15482;SDS011;7843;50.330;7.312;2023-07-28T11:53:01;0.50;;;0.40;;
15482;SDS011;7843;50.330;7.312;2023-07-28T11:55:28;0.65;;;0.40;;
15482;SDS011;7843;50.330;7.312;2023-07-28T11:57:55;0.87;;;0.57;;
15482;SDS011;7843;50.330;7.312;2023-07-28T12:00:28;0.50;;;0.50;;
15482;SDS011;7843;50.330;7.312;2023-07-28T12:03:03;0.85;;;0.63;;
15482;SDS011;7843;50.330;7.312;2023-07-28T12:05:37;2.55;;;0.55;;
15482;SDS011;7843;50.330;7.312;2023-07-28T12:08:16;4.78;;;0.50;;
15482;SDS011;7843;50.330;7.312;2023-07-28T12:10:59;0.88;;;0.65;;
15482;SDS011;7843;50.330;7.312;2023-07-28T12:13:30;3.15;;;0.55;;
15482;SDS011;7843;50.330;7.312;2023-07-28T12:15:57;1.70;;;0.83;;
15482;SDS011;7843;50.330;7.312;2023-07-28T12:18:29;1.33;;;1.02;;
15482;SDS011;7843;50.330;7.312;2023-07-28T12:21:00;3.60;;;0.98;;
15482;SDS011;7843;50.330;7.312;2023-07-28T12:23:27;1.13;;;0.70;;
15482;SDS011;7843;50.330;7.312;2023-07-28T12:25:56;2.35;;;0.75;;
15482;SDS011;7843;50.330;7.312;2023-07-28T12:28:24;0.93;;;0.70;;
15482;SDS011;7843;50.330;7.312;2023-07-28T12:30:51;2.03;;;0.88;;
15482;SDS011;7843;50.330;7.312;2023-07-28T12:33:21;1.33;;;1.00;;
15482;SDS011;7843;50.330;7.312;2023-07-28T12:35:48;1.65;;;0.93;;
15482;SDS011;7843;50.330;7.312;2023-07-28T12:38:16;1.37;;;1.00;;
15482;SDS011;7843;50.330;7.312;2023-07-28T12:40:46;1.13;;;0.90;;
15482;SDS011;7843;50.330;7.312;2023-07-28T12:43:16;2.35;;;0.90;;
15482;SDS011;7843;50.330;7.312;2023-07-28T12:45:45;2.97;;;1.10;;
15482;SDS011;7843;50.330;7.312;2023-07-28T12:48:15;5.68;;;1.15;;
15482;SDS011;7843;50.330;7.312;2023-07-28T12:50:45;1.50;;;0.80;;
15482;SDS011;7843;50.330;7.312;2023-07-28T12:53:12;1.60;;;1.20;;
15482;SDS011;7843;50.330;7.312;2023-07-28T12:55:41;3.90;;;1.20;;
15482;SDS011;7843;50.330;7.312;2023-07-28T12:58:25;1.30;;;1.00;;
15482;SDS011;7843;50.330;7.312;2023-07-28T13:00:54;1.38;;;0.90;;
15482;SDS011;7843;50.330;7.312;2023-07-28T13:03:26;1.50;;;1.13;;
15482;SDS011;7843;50.330;7.312;2023-07-28T13:05:53;1.55;;;0.75;;
15482;SDS011;7843;50.330;7.312;2023-07-28T13:08:20;1.60;;;1.00;;
15482;SDS011;7843;50.330;7.312;2023-07-28T13:11:07;0.90;;;0.80;;
15482;SDS011;7843;50.330;7.312;2023-07-28T13:13:36;1.15;;;0.80;;
15482;SDS011;7843;50.330;7.312;2023-07-28T13:16:04;1.02;;;0.75;;
15482;SDS011;7843;50.330;7.312;2023-07-28T13:18:32;0.85;;;0.60;;
15482;SDS011;7843;50.330;7.312;2023-07-28T13:20:59;2.20;;;0.80;;
15482;SDS011;7843;50.330;7.312;2023-07-28T13:23:26;1.07;;;0.60;;
15482;SDS011;7843;50.330;7.312;2023-07-28T13:25:53;1.27;;;0.77;;
15482;SDS011;7843;50.330;7.312;2023-07-28T13:28:19;1.00;;;0.60;;
15482;SDS011;7843;50.330;7.312;2023-07-28T13:30:46;0.95;;;0.47;;
15482;SDS011;7843;50.330;7.312;2023-07-28T13:33:13;1.65;;;0.70;;
15482;SDS011;7843;50.330;7.312;2023-07-28T13:35:40;0.93;;;0.73;;
15482;SDS011;7843;50.330;7.312;2023-07-28T13:38:06;1.20;;;0.70;;
15482;SDS011;7843;50.330;7.312;2023-07-28T13:40:34;1.65;;;0.80;;
15482;SDS011;7843;50.330;7.312;2023-07-28T13:43:03;1.30;;;0.90;;
15482;SDS011;7843;50.330;7.312;2023-07-28T13:45:31;0.52;;;0.45;;
15482;SDS011;7843;50.330;7.312;2023-07-28T13:47:58;0.95;;;0.60;;
15482;SDS011;7843;50.330;7.312;2023-07-28T13:50:24;0.82;;;0.50;;
15482;SDS011;7843;50.330;7.312;2023-07-28T13:53:03;0.60;;;0.60;;
15482;SDS011;7843;50.330;7.312;2023-07-28T13:55:32;0.80;;;0.60;;
15482;SDS011;7843;50.330;7.312;2023-07-28T13:58:02;1.10;;;0.60;;
15482;SDS011;7843;50.330;7.312;2023-07-28T14:00:29;0.90;;;0.40;;
15482;SDS011;7843;50.330;7.312;2023-07-28T14:02:55;0.70;;;0.40;;
15482;SDS011;7843;50.330;7.312;2023-07-28T14:05:22;0.60;;;0.52;;
15482;SDS011;7843;50.330;7.312;2023-07-28T14:07:49;0.90;;;0.50;;
15482;SDS011;7843;50.330;7.312;2023-07-28T14:10:16;0.47;;;0.40;;
15482;SDS011;7843;50.330;7.312;2023-07-28T14:12:42;0.30;;;0.30;;
15482;SDS011;7843;50.330;7.312;2023-07-28T14:15:09;0.50;;;0.40;;
15482;SDS011;7843;50.330;7.312;2023-07-28T14:17:36;0.93;;;0.50;;
15482;SDS011;7843;50.330;7.312;2023-07-28T14:20:02;0.40;;;0.30;;
15482;SDS011;7843;50.330;7.312;2023-07-28T14:22:30;0.80;;;0.45;;
15482;SDS011;7843;50.330;7.312;2023-07-28T14:24:56;0.70;;;0.50;;
15482;SDS011;7843;50.330;7.312;2023-07-28T14:27:23;0.30;;;0.30;;
15482;SDS011;7843;50.330;7.312;2023-07-28T14:29:50;0.30;;;0.30;;
15482;SDS011;7843;50.330;7.312;2023-07-28T14:32:16;0.57;;;0.43;;
15482;SDS011;7843;50.330;7.312;2023-07-28T14:34:43;0.77;;;0.32;;
15482;SDS011;7843;50.330;7.312;2023-07-28T14:37:10;0.90;;;0.47;;
15482;SDS011;7843;50.330;7.312;2023-07-28T14:39:37;0.50;;;0.28;;
15482;SDS011;7843;50.330;7.312;2023-07-28T14:42:04;0.82;;;0.30;;
15482;SDS011;7843;50.330;7.312;2023-07-28T14:44:31;0.30;;;0.20;;
15482;SDS011;7843;50.330;7.312;2023-07-28T14:46:58;0.50;;;0.20;;
15482;SDS011;7843;50.330;7.312;2023-07-28T14:49:24;2.70;;;0.35;;
15482;SDS011;7843;50.330;7.312;2023-07-28T14:51:54;0.40;;;0.30;;
15482;SDS011;7843;50.330;7.312;2023-07-28T14:54:21;0.10;;;0.10;;
15482;SDS011;7843;50.330;7.312;2023-07-28T14:56:47;0.30;;;0.30;;
15482;SDS011;7843;50.330;7.312;2023-07-28T14:59:14;0.30;;;0.30;;
15482;SDS011;7843;50.330;7.312;2023-07-28T15:01:41;1.60;;;0.30;;
15482;SDS011;7843;50.330;7.312;2023-07-28T15:04:08;0.20;;;0.15;;
15482;SDS011;7843;50.330;7.312;2023-07-28T15:06:37;0.20;;;0.20;;
15482;SDS011;7843;50.330;7.312;2023-07-28T15:09:04;0.80;;;0.20;;
15482;SDS011;7843;50.330;7.312;2023-07-28T15:11:31;0.40;;;0.30;;
15482;SDS011;7843;50.330;7.312;2023-07-28T15:13:58;0.20;;;0.20;;
15482;SDS011;7843;50.330;7.312;2023-07-28T15:16:25;0.35;;;0.20;;